Time;durP1;ratioP1;P1;durP2;ratioP2;P2;SDS_P1;SDS_P2;PMS_P1;PMS_P2;Temp;Humidity;BMP_temperature;BMP_pressure;BME280_temperature;BME280_humidity;BME280_pressure;Samples;Min_cycle;Max_cycle;Signal;HPM_P1;HPM_P2
2023/11/18 00:01:55;;;;;;;3.30;1.40;;;5.40;92.30;;;;;;4771184;30;20052;-77
2023/11/18 00:04:21;;;;;;;2.00;1.15;;;5.40;92.30;;;;;;4771274;30;20398;-77
2023/11/18 00:06:47;;;;;;;3.65;1.27;;;5.40;92.30;;;;;;4787153;30;20507;-77
2023/11/18 00:09:14;;;;;;;1.40;1.10;;;5.40;92.30;;;;;;4756213;30;20035;-77
2023/11/18 00:11:42;;;;;;;3.13;1.40;;;5.40;92.30;;;;;;4771133;30;20487;-77
2023/11/18 00:14:10;;;;;;;3.33;1.67;;;5.40;92.30;;;;;;4770945;30;20054;-77
2023/11/18 00:16:36;;;;;;;2.30;1.17;;;5.40;92.30;;;;;;4741808;30;20106;-77
2023/11/18 00:19:04;;;;;;;2.85;1.45;;;5.50;92.30;;;;;;4755975;30;20406;-77
2023/11/18 00:21:30;;;;;;;2.28;1.23;;;5.50;92.30;;;;;;4786815;30;20043;-77
2023/11/18 00:23:56;;;;;;;2.83;1.50;;;5.50;92.30;;;;;;4787371;30;20056;-77
2023/11/18 00:26:22;;;;;;;2.75;1.30;;;5.50;92.30;;;;;;4771396;30;20042;-77
2023/11/18 00:28:48;;;;;;;2.67;1.33;;;5.60;92.30;;;;;;4770750;30;20031;-78
2023/11/18 00:31:14;;;;;;;2.10;1.38;;;5.40;92.30;;;;;;4755755;30;20058;-77
2023/11/18 00:33:40;;;;;;;2.38;1.13;;;5.60;92.40;;;;;;4787078;30;20071;-78
2023/11/18 00:36:07;;;;;;;2.55;1.40;;;5.50;92.30;;;;;;4787093;30;20497;-77
2023/11/18 00:38:32;;;;;;;2.72;1.40;;;5.40;92.30;;;;;;4770818;30;20450;-77
2023/11/18 00:40:58;;;;;;;2.10;1.13;;;5.60;92.40;;;;;;4786383;30;20081;-77
2023/11/18 00:43:24;;;;;;;2.58;1.50;;;5.40;92.40;;;;;;4770652;30;20048;-77
2023/11/18 00:45:51;;;;;;;3.03;1.52;;;5.40;92.40;;;;;;4770492;30;20096;-78
2023/11/18 00:48:17;;;;;;;2.58;1.38;;;5.40;92.50;;;;;;4770179;30;20466;-78
2023/11/18 00:50:42;;;;;;;1.98;1.35;;;5.40;92.50;;;;;;4787102;30;20043;-78
2023/11/18 00:53:09;;;;;;;2.58;1.30;;;5.30;92.50;;;;;;4787076;30;20039;-77
2023/11/18 00:55:36;;;;;;;2.65;1.52;;;5.30;92.50;;;;;;4755538;30;20047;-77
2023/11/18 00:58:02;;;;;;;2.88;1.58;;;5.20;92.50;;;;;;4786098;30;20094;-77
2023/11/18 01:00:27;;;;;;;3.00;1.40;;;5.30;92.50;;;;;;4771172;30;20055;-78
2023/11/18 01:02:54;;;;;;;2.42;1.40;;;5.20;92.50;;;;;;4773350;30;20043;-78
2023/11/18 01:05:20;;;;;;;3.00;1.40;;;5.20;92.60;;;;;;4789390;30;20043;-78
2023/11/18 01:07:46;;;;;;;3.30;1.52;;;5.20;92.60;;;;;;4773080;30;20036;-77
2023/11/18 01:10:13;;;;;;;3.58;1.83;;;5.20;92.60;;;;;;4789698;30;20093;-77
2023/11/18 01:12:39;;;;;;;3.53;1.63;;;5.10;92.60;;;;;;4789310;30;20124;-77
2023/11/18 01:15:07;;;;;;;2.38;1.50;;;5.20;92.70;;;;;;4789168;30;20127;-77
2023/11/18 01:17:33;;;;;;;2.85;1.50;;;5.10;92.70;;;;;;4772969;30;20075;-77
2023/11/18 01:20:01;;;;;;;2.08;1.40;;;5.10;92.70;;;;;;4757920;30;20051;-77
2023/11/18 01:22:26;;;;;;;2.53;1.50;;;5.00;92.70;;;;;;4789179;30;20074;-77
2023/11/18 01:24:52;;;;;;;2.40;1.23;;;5.00;92.70;;;;;;4788711;30;20059;-77
2023/11/18 01:27:19;;;;;;;2.78;1.50;;;5.00;92.70;;;;;;4743441;30;20062;-77
2023/11/18 01:29:46;;;;;;;2.17;1.45;;;4.90;92.80;;;;;;4789069;30;20051;-77
2023/11/18 01:32:13;;;;;;;1.88;1.23;;;4.90;92.80;;;;;;4773037;30;20048;-77
2023/11/18 01:34:40;;;;;;;3.10;1.60;;;4.80;92.80;;;;;;4772834;30;20126;-77
2023/11/18 01:37:07;;;;;;;2.60;1.30;;;4.80;92.80;;;;;;4757931;30;20070;-78
2023/11/18 01:39:34;;;;;;;3.42;1.63;;;4.70;92.80;;;;;;4743255;30;20047;-77
2023/11/18 01:42:00;;;;;;;2.65;1.55;;;4.70;92.90;;;;;;4772936;30;20048;-78
2023/11/18 01:44:28;;;;;;;2.72;1.42;;;4.80;92.90;;;;;;4788960;30;20498;-77
2023/11/18 01:46:55;;;;;;;3.47;1.48;;;4.70;92.90;;;;;;4772740;30;20043;-77
2023/11/18 01:49:22;;;;;;;2.60;1.52;;;4.70;92.90;;;;;;4772315;30;20035;-77
2023/11/18 01:51:51;;;;;;;3.30;1.50;;;4.80;92.90;;;;;;4741996;30;20046;-77
2023/11/18 01:54:19;;;;;;;3.33;1.42;;;4.70;92.90;;;;;;4772357;30;20075;-77
2023/11/18 01:56:47;;;;;;;3.30;1.20;;;4.70;92.90;;;;;;4773447;30;20043;-77
2023/11/18 01:59:18;;;;;;;2.30;1.40;;;4.70;92.80;;;;;;4771998;30;20058;-77
2023/11/18 02:01:48;;;;;;;2.10;1.10;;;4.70;92.80;;;;;;4772681;30;20048;-77
2023/11/18 02:04:15;;;;;;;2.22;1.38;;;4.70;92.80;;;;;;4757738;30;20047;-77
2023/11/18 02:06:40;;;;;;;2.00;1.23;;;4.70;92.80;;;;;;4788345;30;20039;-77
2023/11/18 02:09:06;;;;;;;2.25;1.30;;;4.70;92.80;;;;;;4772075;30;20046;-78
2023/11/18 02:11:41;;;;;;;2.25;1.17;;;4.70;92.80;;;;;;4771379;30;20126;-77
2023/11/18 02:14:12;;;;;;;2.28;1.20;;;4.70;92.80;;;;;;4772257;30;20040;-78
2023/11/18 02:16:40;;;;;;;2.85;1.45;;;4.60;92.80;;;;;;4758375;30;20039;-77
2023/11/18 02:19:15;;;;;;;2.58;1.38;;;4.70;92.80;;;;;;4788285;30;20035;-78
2023/11/18 02:21:41;;;;;;;2.17;1.23;;;4.80;92.80;;;;;;4772137;30;20100;-77
2023/11/18 02:24:07;;;;;;;2.13;1.23;;;4.80;92.80;;;;;;4772092;30;20036;-77
2023/11/18 02:26:33;;;;;;;2.50;1.35;;;4.80;92.80;;;;;;4772501;30;20043;-77
2023/11/18 02:28:59;;;;;;;3.22;1.60;;;4.80;92.70;;;;;;4742336;30;20040;-77
2023/11/18 02:31:32;;;;;;;2.75;1.50;;;4.80;92.70;;;;;;4757328;30;20044;-77
2023/11/18 02:34:09;;;;;;;2.88;1.65;;;4.90;92.70;;;;;;4757607;30;20123;-78
2023/11/18 02:36:41;;;;;;;4.38;1.70;;;4.90;92.70;;;;;;4757628;30;20070;-77
2023/11/18 02:39:17;;;;;;;4.18;1.63;;;4.90;93.00;;;;;;4756735;30;20043;-77
2023/11/18 02:41:47;;;;;;;2.92;1.58;;;4.90;92.70;;;;;;4757477;30;20055;-77
2023/11/18 02:44:17;;;;;;;2.42;1.30;;;4.90;92.70;;;;;;4788090;30;20043;-77
2023/11/18 02:46:43;;;;;;;2.55;1.40;;;4.90;92.70;;;;;;4771590;30;20126;-78
2023/11/18 02:49:09;;;;;;;2.55;1.20;;;4.90;92.70;;;;;;4772019;30;20100;-78
2023/11/18 02:51:39;;;;;;;2.10;1.30;;;5.00;92.70;;;;;;4772337;30;20476;-77
2023/11/18 02:54:06;;;;;;;2.42;1.27;;;5.00;92.70;;;;;;4741389;30;20042;-77
2023/11/18 02:56:32;;;;;;;3.00;1.55;;;5.00;92.70;;;;;;4756888;30;20035;-77
2023/11/18 02:58:59;;;;;;;2.90;1.52;;;4.90;92.70;;;;;;4787894;30;20052;-78
2023/11/18 03:01:25;;;;;;;2.80;1.50;;;5.00;92.70;;;;;;4756693;30;20452;-77
2023/11/18 03:03:51;;;;;;;2.35;1.40;;;5.00;92.70;;;;;;4756786;30;20039;-77
2023/11/18 03:06:16;;;;;;;3.15;1.40;;;5.00;92.60;;;;;;4771533;30;20138;-77
2023/11/18 03:08:42;;;;;;;2.38;1.42;;;5.20;92.70;;;;;;4787706;30;20043;-78
2023/11/18 03:11:09;;;;;;;1.88;1.17;;;5.00;92.60;;;;;;4787456;30;20138;-77
2023/11/18 03:13:35;;;;;;;2.28;1.15;;;5.10;92.70;;;;;;4771308;30;20073;-77
2023/11/18 03:16:02;;;;;;;3.15;1.50;;;5.10;92.70;;;;;;4787683;30;20039;-78
2023/11/18 03:18:29;;;;;;;2.42;1.30;;;5.10;92.70;;;;;;4756587;30;20077;-78
2023/11/18 03:20:55;;;;;;;2.42;1.27;;;5.10;92.60;;;;;;4787336;30;20054;-78
2023/11/18 03:23:21;;;;;;;2.72;1.30;;;5.20;92.60;;;;;;4756547;30;20059;-77
2023/11/18 03:25:47;;;;;;;3.13;1.63;;;5.20;92.60;;;;;;4787547;30;20548;-77
2023/11/18 03:28:14;;;;;;;1.75;1.17;;;5.20;92.60;;;;;;4787653;30;20483;-78
2023/11/18 03:30:41;;;;;;;2.90;1.50;;;5.10;92.60;;;;;;4787485;30;20048;-77
2023/11/18 03:33:10;;;;;;;2.50;1.17;;;5.20;92.60;;;;;;4742081;30;20051;-77
2023/11/18 03:35:37;;;;;;;2.15;1.30;;;5.20;92.60;;;;;;4787375;30;20394;-77
2023/11/18 03:38:03;;;;;;;2.90;1.30;;;5.20;92.60;;;;;;4771612;30;20078;-77
2023/11/18 03:40:29;;;;;;;1.95;1.30;;;5.30;92.60;;;;;;4756499;30;20099;-77
2023/11/18 03:42:55;;;;;;;2.75;1.50;;;5.20;92.60;;;;;;4756323;30;20467;-77
2023/11/18 03:45:21;;;;;;;1.70;1.23;;;5.30;92.60;;;;;;4787062;30;20092;-78
2023/11/18 03:47:47;;;;;;;3.95;1.65;;;5.30;92.60;;;;;;4770819;30;20039;-77
2023/11/18 03:50:13;;;;;;;2.70;1.48;;;5.30;92.60;;;;;;4787115;30;20125;-77
2023/11/18 03:52:39;;;;;;;2.80;1.30;;;5.30;92.60;;;;;;4770843;30;20491;-77
2023/11/18 03:55:04;;;;;;;3.72;1.73;;;5.30;92.60;;;;;;4786851;30;20047;-77
2023/11/18 03:57:30;;;;;;;2.22;1.30;;;5.30;92.60;;;;;;4755724;30;20072;-77
2023/11/18 03:59:56;;;;;;;2.72;1.40;;;5.40;92.60;;;;;;4786855;30;20044;-77
2023/11/18 04:02:22;;;;;;;3.67;1.67;;;5.50;92.70;;;;;;4770761;30;20479;-77
2023/11/18 04:04:48;;;;;;;2.20;1.35;;;5.40;92.60;;;;;;4786579;30;20032;-77
2023/11/18 04:07:14;;;;;;;4.25;1.88;;;5.40;92.60;;;;;;4756177;30;20032;-77
2023/11/18 04:09:43;;;;;;;3.00;1.40;;;5.40;92.60;;;;;;4755741;30;20105;-78
2023/11/18 04:12:10;;;;;;;3.90;1.70;;;5.40;92.60;;;;;;4756025;30;20040;-78
2023/11/18 04:14:36;;;;;;;3.28;1.50;;;5.50;92.70;;;;;;4787106;30;20134;-77
2023/11/18 04:17:03;;;;;;;4.05;1.80;;;5.50;92.70;;;;;;4787149;30;20035;-76
2023/11/18 04:19:28;;;;;;;3.78;1.80;;;5.50;92.70;;;;;;4770411;30;20499;-76
2023/11/18 04:21:54;;;;;;;3.20;1.50;;;5.40;92.60;;;;;;4770590;30;20048;-77
2023/11/18 04:24:20;;;;;;;2.58;1.55;;;5.50;92.60;;;;;;4770582;30;20082;-76
2023/11/18 04:26:47;;;;;;;3.53;1.50;;;5.50;92.70;;;;;;4755493;30;20043;-76
2023/11/18 04:29:13;;;;;;;3.45;1.63;;;5.60;92.70;;;;;;4786792;30;20039;-77
2023/11/18 04:31:39;;;;;;;2.72;1.42;;;5.60;92.70;;;;;;4770662;30;20452;-77
2023/11/18 04:34:05;;;;;;;4.13;1.95;;;5.60;92.70;;;;;;4770274;30;20050;-77
2023/11/18 04:36:31;;;;;;;4.57;1.75;;;5.60;92.70;;;;;;4786072;30;20031;-77
2023/11/18 04:38:57;;;;;;;3.47;1.80;;;5.70;92.70;;;;;;4786338;30;20043;-77
2023/11/18 04:41:23;;;;;;;3.08;1.52;;;5.60;92.70;;;;;;4755279;30;20836;-77
2023/11/18 04:43:50;;;;;;;4.10;1.75;;;5.70;92.70;;;;;;4769997;30;20082;-77
2023/11/18 04:46:16;;;;;;;4.53;1.88;;;5.60;92.70;;;;;;4770341;30;20562;-77
2023/11/18 04:48:42;;;;;;;2.42;1.42;;;5.60;92.70;;;;;;4769908;30;20487;-77
2023/11/18 04:51:08;;;;;;;2.70;1.50;;;5.60;92.70;;;;;;4770351;30;20043;-77
2023/11/18 04:53:34;;;;;;;4.50;2.17;;;5.70;92.70;;;;;;4770835;30;20044;-77
2023/11/18 04:56:00;;;;;;;4.57;1.83;;;5.70;92.70;;;;;;4786768;30;20035;-77
2023/11/18 04:58:25;;;;;;;3.65;1.70;;;5.70;92.70;;;;;;4754821;30;20419;-77
2023/11/18 05:00:51;;;;;;;3.40;1.63;;;5.70;92.70;;;;;;4770610;30;20044;-77
2023/11/18 05:03:17;;;;;;;3.47;1.38;;;5.70;92.70;;;;;;4770453;30;20035;-76
2023/11/18 05:05:43;;;;;;;2.88;1.65;;;5.70;92.70;;;;;;4770555;30;20450;-76
2023/11/18 05:08:20;;;;;;;2.88;1.60;;;5.70;92.70;;;;;;4786606;30;20142;-76
2023/11/18 05:10:47;;;;;;;3.75;1.67;;;5.70;92.70;;;;;;4770194;30;20078;-76
2023/11/18 05:13:16;;;;;;;3.58;1.70;;;5.70;92.70;;;;;;4770127;30;20050;-76
2023/11/18 05:15:45;;;;;;;2.92;1.55;;;5.70;92.70;;;;;;4770448;30;20055;-76
2023/11/18 05:18:14;;;;;;;3.42;1.65;;;5.70;92.70;;;;;;4769998;30;20462;-77
2023/11/18 05:20:40;;;;;;;2.22;1.48;;;5.80;92.70;;;;;;4785975;30;20483;-77
2023/11/18 05:23:09;;;;;;;2.35;1.35;;;5.80;92.70;;;;;;4786811;30;20108;-77
2023/11/18 05:25:36;;;;;;;3.22;1.70;;;5.80;92.70;;;;;;4755558;30;20476;-77
2023/11/18 05:28:03;;;;;;;2.75;1.55;;;5.80;92.80;;;;;;4754970;30;20034;-77
2023/11/18 05:30:30;;;;;;;2.28;1.40;;;5.80;92.70;;;;;;4770306;30;20398;-77
2023/11/18 05:32:58;;;;;;;2.58;1.33;;;5.80;92.70;;;;;;4770292;30;20126;-76
2023/11/18 05:35:28;;;;;;;2.53;1.50;;;5.80;92.70;;;;;;4785848;30;20483;-76
2023/11/18 05:37:54;;;;;;;3.35;1.50;;;5.80;92.70;;;;;;4741364;30;20039;-77
2023/11/18 05:40:20;;;;;;;3.30;1.77;;;5.80;92.80;;;;;;4770324;30;20399;-76
2023/11/18 05:42:48;;;;;;;3.08;1.60;;;5.80;92.80;;;;;;4755045;30;20054;-77
2023/11/18 05:45:27;;;;;;;1.85;1.20;;;5.90;92.80;;;;;;4770591;30;20038;-77
2023/11/18 05:47:55;;;;;;;2.53;1.20;;;5.90;92.80;;;;;;4746803;30;20073;-76
2023/11/18 05:50:21;;;;;;;3.25;1.60;;;5.90;92.80;;;;;;4758034;30;20032;-76
2023/11/18 05:52:48;;;;;;;2.10;1.30;;;5.90;92.80;;;;;;4758076;30;20065;-76
2023/11/18 05:55:13;;;;;;;2.10;1.17;;;5.90;92.80;;;;;;4773368;30;20062;-76
2023/11/18 05:57:39;;;;;;;3.15;1.58;;;5.90;92.80;;;;;;4758493;30;20467;-76
2023/11/18 06:00:05;;;;;;;2.90;1.73;;;5.90;92.80;;;;;;4789325;30;20046;-76
2023/11/18 06:02:31;;;;;;;2.72;1.60;;;5.90;92.80;;;;;;4743164;30;20052;-77
2023/11/18 06:04:57;;;;;;;2.83;1.48;;;5.80;92.80;;;;;;4788807;30;20035;-77
2023/11/18 06:07:23;;;;;;;3.63;1.90;;;5.90;92.80;;;;;;4788657;30;20092;-77
2023/11/18 06:09:49;;;;;;;2.10;1.50;;;5.80;92.80;;;;;;4788365;30;20491;-76
2023/11/18 06:12:17;;;;;;;4.60;2.00;;;5.90;92.80;;;;;;4772502;30;20073;-76
2023/11/18 06:14:44;;;;;;;2.25;1.30;;;5.80;92.80;;;;;;4758305;30;20044;-77
2023/11/18 06:17:13;;;;;;;3.25;1.70;;;5.90;92.90;;;;;;4773073;30;20050;-76
2023/11/18 06:19:39;;;;;;;3.40;1.83;;;5.80;92.80;;;;;;4772698;30;20053;-76
2023/11/18 06:22:05;;;;;;;2.78;1.55;;;5.90;92.90;;;;;;4757671;30;20047;-76
2023/11/18 06:24:31;;;;;;;3.30;1.80;;;5.90;92.90;;;;;;4772534;30;20035;-76
2023/11/18 06:26:59;;;;;;;3.15;1.70;;;5.90;92.90;;;;;;4788438;30;20046;-76
2023/11/18 06:29:25;;;;;;;2.58;1.38;;;5.90;92.90;;;;;;4772257;30;20398;-76
2023/11/18 06:31:51;;;;;;;2.85;1.60;;;5.80;92.90;;;;;;4772201;30;20130;-77
2023/11/18 06:34:18;;;;;;;2.90;1.60;;;5.90;92.90;;;;;;4788467;30;20399;-77
2023/11/18 06:36:43;;;;;;;2.70;1.58;;;5.90;92.90;;;;;;4772573;30;20052;-76
2023/11/18 06:39:09;;;;;;;2.95;1.60;;;5.80;92.90;;;;;;4771808;30;20044;-75
2023/11/18 06:41:37;;;;;;;3.65;1.90;;;5.80;92.90;;;;;;4788255;30;20140;-75
2023/11/18 06:44:17;;;;;;;3.42;1.73;;;5.90;92.90;;;;;;4758030;30;20039;-76
2023/11/18 06:46:42;;;;;;;3.53;1.95;;;5.80;92.90;;;;;;4788387;30;20073;-76
2023/11/18 06:49:10;;;;;;;2.58;1.48;;;5.90;92.90;;;;;;4788594;30;20066;-76
2023/11/18 06:51:37;;;;;;;2.85;1.80;;;5.90;92.90;;;;;;4788476;30;20075;-75
2023/11/18 06:54:08;;;;;;;3.30;1.90;;;5.90;92.90;;;;;;4757272;30;20070;-75
2023/11/18 06:56:37;;;;;;;4.67;2.43;;;5.80;92.90;;;;;;4772546;30;20042;-75
2023/11/18 06:59:04;;;;;;;4.47;2.72;;;5.90;92.90;;;;;;4787604;29;20288;-75
2023/11/18 07:01:30;;;;;;;7.30;3.58;;;5.90;92.90;;;;;;4771674;30;20415;-75
2023/11/18 07:03:56;;;;;;;5.72;3.42;;;5.90;92.90;;;;;;4788062;30;20046;-76
2023/11/18 07:06:23;;;;;;;5.40;3.05;;;5.90;92.90;;;;;;4771638;30;20040;-77
2023/11/18 07:08:49;;;;;;;4.68;2.70;;;5.90;92.90;;;;;;4788334;30;20039;-75
2023/11/18 07:11:16;;;;;;;6.30;3.70;;;5.90;92.90;;;;;;4771538;30;20048;-76
2023/11/18 07:13:42;;;;;;;5.15;2.97;;;5.90;92.90;;;;;;4771471;30;20062;-76
2023/11/18 07:16:08;;;;;;;5.50;3.35;;;5.90;92.90;;;;;;4756713;30;20051;-76
2023/11/18 07:18:35;;;;;;;6.38;3.25;;;5.90;92.90;;;;;;4787453;30;20130;-75
2023/11/18 07:21:03;;;;;;;3.83;2.15;;;5.90;92.90;;;;;;4787368;30;20046;-75
2023/11/18 07:23:29;;;;;;;4.22;2.17;;;5.90;92.90;;;;;;4756858;30;20097;-75
2023/11/18 07:25:56;;;;;;;4.22;2.55;;;5.90;92.90;;;;;;4771362;30;20449;-76
2023/11/18 07:28:22;;;;;;;4.70;1.80;;;5.90;92.90;;;;;;4787463;30;20529;-75
2023/11/18 07:30:48;;;;;;;4.13;2.10;;;6.00;92.90;;;;;;4787559;30;20043;-75
2023/11/18 07:33:15;;;;;;;3.25;1.83;;;6.00;92.90;;;;;;4787552;30;20395;-75
2023/11/18 07:35:42;;;;;;;3.35;1.70;;;6.00;92.90;;;;;;4771258;30;20406;-76
2023/11/18 07:38:09;;;;;;;3.10;1.80;;;6.00;92.90;;;;;;4771465;30;20503;-76
2023/11/18 07:40:35;;;;;;;3.33;1.80;;;6.00;92.90;;;;;;4787669;30;20137;-76
2023/11/18 07:43:01;;;;;;;3.17;1.60;;;6.00;93.00;;;;;;4771523;30;20122;-76
2023/11/18 07:45:28;;;;;;;2.10;1.40;;;6.00;92.90;;;;;;4771556;30;20042;-76
2023/11/18 07:47:55;;;;;;;1.85;1.30;;;6.00;92.90;;;;;;4756579;30;20036;-76
2023/11/18 07:50:21;;;;;;;3.35;1.70;;;6.00;92.90;;;;;;4771217;30;20130;-76
2023/11/18 07:52:49;;;;;;;3.13;1.75;;;6.00;92.90;;;;;;4756442;30;20530;-76
2023/11/18 07:55:15;;;;;;;3.03;1.70;;;6.00;93.20;;;;;;4756335;30;20036;-75
2023/11/18 07:57:42;;;;;;;2.78;1.52;;;6.00;92.90;;;;;;4756108;30;20050;-75
2023/11/18 08:00:09;;;;;;;2.13;1.40;;;6.10;92.90;;;;;;4756472;30;20145;-77
2023/11/18 08:02:40;;;;;;;2.08;1.40;;;6.00;92.90;;;;;;4787523;30;20108;-75
2023/11/18 08:05:07;;;;;;;4.07;2.13;;;6.10;93.00;;;;;;4787075;30;20043;-75
2023/11/18 08:07:35;;;;;;;3.47;1.70;;;6.10;92.90;;;;;;4771110;30;20036;-75
2023/11/18 08:10:03;;;;;;;3.50;1.40;;;6.10;92.90;;;;;;4785923;30;20057;-75
2023/11/18 08:12:31;;;;;;;1.77;1.30;;;6.10;92.90;;;;;;4770581;30;20402;-76
2023/11/18 08:14:57;;;;;;;2.58;1.20;;;6.10;92.90;;;;;;4771077;30;20112;-75
2023/11/18 08:17:25;;;;;;;2.15;1.30;;;6.10;92.90;;;;;;4756084;30;20047;-75
2023/11/18 08:19:52;;;;;;;2.35;1.20;;;6.10;92.90;;;;;;4771125;30;20051;-75
2023/11/18 08:22:19;;;;;;;2.33;1.42;;;6.10;92.90;;;;;;4770421;30;20047;-75
2023/11/18 08:24:45;;;;;;;2.83;1.50;;;6.20;93.00;;;;;;4755808;30;20039;-75
2023/11/18 08:27:11;;;;;;;2.85;1.40;;;6.20;93.00;;;;;;4755952;30;20100;-75
2023/11/18 08:29:38;;;;;;;2.00;1.40;;;6.20;92.90;;;;;;4770765;30;20039;-75
2023/11/18 08:32:06;;;;;;;3.50;1.70;;;6.30;93.00;;;;;;4741519;30;20043;-75
2023/11/18 08:34:33;;;;;;;2.33;1.35;;;6.20;92.90;;;;;;4755897;30;20043;-76
2023/11/18 08:36:59;;;;;;;3.10;1.58;;;6.20;93.20;;;;;;4771059;30;20050;-75
2023/11/18 08:39:28;;;;;;;2.83;1.50;;;6.30;92.90;;;;;;4755693;30;20043;-75
2023/11/18 08:41:54;;;;;;;2.63;1.40;;;6.30;92.90;;;;;;4786307;30;20047;-74
2023/11/18 08:44:20;;;;;;;3.28;1.23;;;6.30;92.90;;;;;;4770390;30;20096;-74
2023/11/18 08:46:46;;;;;;;2.15;1.42;;;6.30;92.90;;;;;;4770714;30;20043;-74
2023/11/18 08:49:12;;;;;;;2.80;1.20;;;6.20;92.90;;;;;;4754732;30;20123;-74
2023/11/18 08:51:38;;;;;;;1.88;1.30;;;6.30;92.90;;;;;;4786850;30;20579;-74
2023/11/18 08:54:22;;;;;;;2.67;1.15;;;6.30;93.10;;;;;;4770228;30;20104;-74
2023/11/18 08:56:50;;;;;;;2.58;1.30;;;6.40;92.90;;;;;;4772885;30;20941;-74
2023/11/18 08:59:24;;;;;;;3.22;1.23;;;6.40;92.90;;;;;;4786328;30;20043;-74
2023/11/18 09:01:55;;;;;;;2.33;1.00;;;6.40;92.90;;;;;;4771322;30;20097;-74
2023/11/18 09:04:23;;;;;;;2.05;1.00;;;6.40;92.90;;;;;;4770092;30;20039;-74
2023/11/18 09:06:51;;;;;;;2.88;1.35;;;6.40;92.80;;;;;;4769984;30;20087;-75
2023/11/18 09:09:18;;;;;;;1.65;1.00;;;6.50;92.90;;;;;;4770566;30;20035;-75
2023/11/18 09:11:44;;;;;;;1.70;1.10;;;6.60;92.90;;;;;;4786469;30;20870;-73
2023/11/18 09:14:11;;;;;;;2.20;1.40;;;6.60;92.80;;;;;;4770397;30;20478;-74
2023/11/18 09:16:39;;;;;;;3.40;1.38;;;6.60;92.80;;;;;;4786288;30;20043;-73
2023/11/18 09:19:06;;;;;;;2.72;1.23;;;6.70;92.80;;;;;;4786810;30;20067;-71
2023/11/18 09:21:35;;;;;;;2.42;1.20;;;6.70;92.80;;;;;;4771950;30;20050;-71
2023/11/18 09:24:04;;;;;;;2.03;1.30;;;6.70;92.80;;;;;;4789840;30;20514;-71
2023/11/18 09:26:31;;;;;;;2.95;1.20;;;6.70;92.70;;;;;;4773749;30;20040;-71
2023/11/18 09:28:57;;;;;;;2.78;1.30;;;6.80;92.80;;;;;;4771772;30;20403;-72
2023/11/18 09:31:23;;;;;;;2.70;1.23;;;6.80;92.70;;;;;;4789020;30;20043;-71
2023/11/18 09:33:52;;;;;;;2.25;1.30;;;6.80;92.70;;;;;;4789735;30;20188;-71
2023/11/18 09:36:20;;;;;;;3.85;1.42;;;6.90;92.70;;;;;;4773012;30;20045;-71
2023/11/18 09:38:46;;;;;;;2.65;1.40;;;6.90;92.70;;;;;;4772959;30;20043;-71
2023/11/18 09:41:13;;;;;;;2.85;1.33;;;7.00;92.70;;;;;;4788861;30;20059;-71
2023/11/18 09:43:47;;;;;;;2.50;1.30;;;6.90;92.70;;;;;;4772746;30;20035;-71
2023/11/18 09:46:23;;;;;;;2.50;1.30;;;6.90;92.70;;;;;;4789059;30;20051;-71
2023/11/18 09:48:53;;;;;;;1.98;1.13;;;7.00;92.70;;;;;;4773006;30;20129;-71
2023/11/18 09:51:22;;;;;;;1.85;1.08;;;7.00;92.70;;;;;;4788771;30;20050;-72
2023/11/18 09:53:52;;;;;;;2.10;1.20;;;7.00;92.70;;;;;;4757937;30;20510;-72
2023/11/18 09:56:34;;;;;;;1.63;1.00;;;7.00;92.70;;;;;;4772749;30;20043;-71
2023/11/18 09:59:15;;;;;;;3.28;1.30;;;7.00;92.70;;;;;;4772846;30;20486;-72
2023/11/18 10:01:44;;;;;;;2.28;1.20;;;7.10;92.70;;;;;;4788473;30;20047;-75
2023/11/18 10:04:10;;;;;;;3.22;1.50;;;7.10;92.70;;;;;;4758441;30;20054;-76
2023/11/18 10:06:38;;;;;;;3.00;1.52;;;7.10;92.70;;;;;;4775084;30;20046;-78
2023/11/18 10:09:28;;;;;;;1.70;0.93;;;7.00;92.60;;;;;;4758258;30;20184;-77
2023/11/18 10:11:58;;;;;;;2.20;1.30;;;7.10;92.70;;;;;;4774408;30;20395;-77
2023/11/18 10:14:24;;;;;;;2.08;1.25;;;7.10;92.70;;;;;;4773282;30;20444;-78
2023/11/18 10:16:53;;;;;;;2.50;1.10;;;7.10;92.70;;;;;;4757894;30;20050;-78
2023/11/18 10:19:19;;;;;;;3.03;1.25;;;7.10;92.70;;;;;;4772310;30;20062;-78
2023/11/18 10:21:48;;;;;;;3.38;1.50;;;7.10;92.70;;;;;;4757385;30;20075;-78
2023/11/18 10:24:19;;;;;;;3.20;1.42;;;7.20;92.80;;;;;;4773781;30;20035;-78
2023/11/18 10:26:55;;;;;;;2.53;1.08;;;7.10;92.80;;;;;;4771659;30;20059;-76
2023/11/18 10:29:21;;;;;;;3.58;1.58;;;7.10;92.80;;;;;;4771767;30;20046;-77
2023/11/18 10:31:46;;;;;;;3.63;1.20;;;7.10;92.70;;;;;;4759872;30;20079;-77
2023/11/18 10:34:15;;;;;;;3.42;1.40;;;7.10;92.80;;;;;;4775099;30;20052;-77
2023/11/18 10:36:58;;;;;;;2.30;1.00;;;7.10;92.80;;;;;;4759248;30;20035;-76
2023/11/18 10:39:31;;;;;;;2.53;1.10;;;7.10;92.70;;;;;;4781457;30;20032;-75
2023/11/18 10:42:00;;;;;;;2.33;1.15;;;7.20;92.70;;;;;;4791542;30;20118;-76
2023/11/18 10:44:26;;;;;;;2.47;1.17;;;7.20;92.70;;;;;;4757634;30;20135;-76
2023/11/18 10:46:53;;;;;;;2.05;1.05;;;7.20;92.70;;;;;;4788659;30;20508;-76
2023/11/18 10:49:20;;;;;;;2.40;0.95;;;7.30;92.70;;;;;;4775252;30;20184;-76
2023/11/18 10:51:47;;;;;;;2.17;1.00;;;7.20;92.70;;;;;;4802812;30;20101;-76
2023/11/18 10:54:15;;;;;;;3.50;1.50;;;7.30;93.00;;;;;;4804426;30;20411;-75
2023/11/18 10:56:49;;;;;;;3.03;1.33;;;7.30;92.70;;;;;;4786077;30;20035;-75
2023/11/18 10:59:16;;;;;;;2.65;1.30;;;7.30;92.70;;;;;;4774916;30;20043;-75
2023/11/18 11:01:42;;;;;;;2.53;1.13;;;7.20;92.70;;;;;;4807808;30;20107;-77
2023/11/18 11:04:11;;;;;;;2.28;0.93;;;7.30;92.70;;;;;;4810908;30;20024;-76
2023/11/18 11:06:42;;;;;;;2.65;1.30;;;7.30;92.70;;;;;;4808229;30;20051;-76
2023/11/18 11:09:15;;;;;;;1.73;1.08;;;7.30;92.70;;;;;;4794034;30;20057;-77
2023/11/18 11:11:46;;;;;;;2.58;1.35;;;7.40;92.70;;;;;;4792934;30;20036;-77
2023/11/18 11:14:16;;;;;;;2.17;1.10;;;7.40;92.70;;;;;;4805219;30;20049;-76
2023/11/18 11:16:50;;;;;;;3.42;1.20;;;7.40;92.70;;;;;;4773098;30;20046;-77
2023/11/18 11:19:44;;;;;;;1.80;1.00;;;7.40;92.70;;;;;;4756993;30;20107;-77
2023/11/18 11:22:15;;;;;;;1.92;1.10;;;7.50;92.80;;;;;;4801210;30;20526;-76
2023/11/18 11:25:02;;;;;;;1.98;1.02;;;7.40;92.70;;;;;;4784436;30;20096;-76
2023/11/18 11:27:39;;;;;;;1.48;0.90;;;7.50;92.70;;;;;;4784700;30;20039;-78
2023/11/18 11:30:18;;;;;;;1.20;0.88;;;7.50;92.70;;;;;;4800488;30;20035;-76
2023/11/18 11:32:51;;;;;;;2.05;1.08;;;7.40;92.80;;;;;;4767356;30;20039;-77
2023/11/18 11:35:24;;;;;;;3.42;1.50;;;7.40;92.80;;;;;;4792771;30;20043;-77
2023/11/18 11:37:53;;;;;;;1.75;0.85;;;7.40;92.80;;;;;;4791128;30;20043;-78
2023/11/18 11:40:22;;;;;;;1.15;0.90;;;7.40;92.80;;;;;;4776108;30;20051;-78
2023/11/18 11:42:55;;;;;;;1.50;1.00;;;7.40;92.80;;;;;;4760514;30;20036;-77
2023/11/18 11:45:28;;;;;;;1.63;1.02;;;7.40;92.80;;;;;;4762341;30;20051;-78
2023/11/18 11:48:13;;;;;;;1.40;0.82;;;7.40;92.80;;;;;;4763685;30;20395;-77
2023/11/18 11:51:03;;;;;;;1.67;0.75;;;7.40;92.90;;;;;;4779304;30;20040;-78
2023/11/18 11:53:38;;;;;;;1.30;0.88;;;7.40;92.90;;;;;;4793014;30;20043;-78
2023/11/18 11:56:06;;;;;;;1.55;0.80;;;7.50;92.90;;;;;;4793953;30;20040;-78
2023/11/18 11:58:37;;;;;;;1.30;0.80;;;7.50;92.90;;;;;;4773314;30;20043;-78
2023/11/18 12:01:23;;;;;;;1.50;0.90;;;7.50;92.90;;;;;;4757157;30;20074;-78
2023/11/18 12:03:49;;;;;;;1.63;0.98;;;7.50;92.90;;;;;;4746291;30;20089;-78
2023/11/18 12:06:23;;;;;;;2.63;1.13;;;7.50;93.20;;;;;;4797092;30;20415;-78
2023/11/18 12:08:52;;;;;;;1.58;1.00;;;7.50;92.90;;;;;;4779655;30;20039;-78
2023/11/18 12:11:20;;;;;;;1.90;0.98;;;7.50;92.90;;;;;;4798592;30;20039;-78
2023/11/18 12:14:12;;;;;;;1.33;0.90;;;7.60;92.90;;;;;;4780529;30;20040;-77
2023/11/18 12:17:08;;;;;;;1.10;0.70;;;7.60;92.90;;;;;;4778410;30;20051;-78
2023/11/18 12:19:44;;;;;;;1.33;0.70;;;7.60;92.90;;;;;;4792053;29;20039;-77
2023/11/18 12:22:17;;;;;;;0.77;0.68;;;7.60;92.90;;;;;;4775977;30;20039;-77
2023/11/18 12:24:46;;;;;;;1.08;0.70;;;7.60;92.90;;;;;;4776804;30;20046;-77
2023/11/18 12:27:13;;;;;;;1.08;0.65;;;7.60;92.90;;;;;;4760102;30;20394;-78
2023/11/18 12:29:43;;;;;;;1.55;1.02;;;7.70;92.90;;;;;;4793091;30;20067;-77
2023/11/18 12:32:12;;;;;;;2.28;1.20;;;7.70;92.90;;;;;;4777706;30;20143;-77
2023/11/18 12:34:53;;;;;;;1.67;1.00;;;7.80;92.90;;;;;;4776467;30;20494;-77
2023/11/18 12:37:47;;;;;;;2.03;0.70;;;7.70;92.90;;;;;;4770995;30;20040;-78
2023/11/18 12:40:36;;;;;;;2.20;1.13;;;7.70;92.90;;;;;;4757134;30;20044;-76
2023/11/18 12:43:05;;;;;;;1.55;0.90;;;7.70;93.00;;;;;;4786878;30;20032;-76
2023/11/18 12:45:44;;;;;;;1.30;0.90;;;7.80;92.90;;;;;;4787195;30;20039;-76
2023/11/18 12:48:14;;;;;;;0.82;0.73;;;7.90;92.90;;;;;;4770629;30;20092;-76
2023/11/18 12:50:43;;;;;;;1.92;0.95;;;7.80;92.90;;;;;;4770827;29;20062;-76
2023/11/18 12:53:11;;;;;;;0.82;0.63;;;7.90;92.90;;;;;;4787026;29;20135;-76
2023/11/18 12:55:39;;;;;;;0.82;0.70;;;7.90;93.00;;;;;;4786196;29;20075;-76
2023/11/18 12:58:06;;;;;;;1.45;0.73;;;7.90;92.80;;;;;;4770604;30;20070;-75
2023/11/18 13:00:34;;;;;;;0.77;0.70;;;7.90;92.80;;;;;;4741315;29;20404;-75
2023/11/18 13:03:00;;;;;;;0.80;0.70;;;8.00;92.90;;;;;;4755939;29;20047;-76
2023/11/18 13:05:30;;;;;;;1.40;0.82;;;8.00;92.90;;;;;;4756323;29;20391;-76